createdAt,value
2016-10-06T00:00:06.805Z,18.3
2016-10-06T00:00:49.363Z,18.23
2016-10-06T00:01:31.919Z,18.2
2016-10-06T00:02:14.444Z,18.21
2016-10-06T00:02:57.082Z,18.08
2016-10-06T00:03:39.673Z,18.08
2016-10-06T00:04:22.231Z,18.1
2016-10-06T00:05:04.798Z,18.14
2016-10-06T00:05:48.161Z,18.1
2016-10-06T00:06:32.167Z,18.2
2016-10-06T00:07:14.685Z,18.21
2016-10-06T00:07:57.120Z,18.25
2016-10-06T00:08:50.237Z,18.17
2016-10-06T00:09:32.853Z,18.2
2016-10-06T00:10:15.424Z,18.26
2016-10-06T00:10:58.083Z,18.21
2016-10-06T00:11:40.868Z,18.27
2016-10-06T00:12:23.480Z,18.26
2016-10-06T00:13:06.070Z,18.32
2016-10-06T00:13:48.610Z,18.36
2016-10-06T00:14:31.178Z,18.41
2016-10-06T00:15:13.772Z,18.44
2016-10-06T00:15:56.255Z,18.36
2016-10-06T00:16:39.621Z,18.42
2016-10-06T00:17:55.802Z,18.47
2016-10-06T00:18:38.238Z,18.63
2016-10-06T00:19:20.889Z,18.58
2016-10-06T00:20:03.480Z,18.57
2016-10-06T00:20:46.061Z,18.57
2016-10-06T00:21:28.668Z,18.63
2016-10-06T00:22:11.957Z,18.66
2016-10-06T00:22:54.593Z,18.63
2016-10-06T00:23:37.191Z,18.69
2016-10-06T00:24:19.650Z,18.67
2016-10-06T00:25:02.279Z,18.69
2016-10-06T00:25:44.843Z,18.69
2016-10-06T00:26:27.348Z,18.62
2016-10-06T00:27:10.008Z,18.72
2016-10-06T00:27:52.562Z,18.72
2016-10-06T00:28:35.096Z,18.73
2016-10-06T00:29:17.645Z,18.67
2016-10-06T00:30:00.250Z,18.7
2016-10-06T00:30:42.814Z,18.88
2016-10-06T00:31:25.368Z,18.8
2016-10-06T00:32:07.944Z,18.69
2016-10-06T00:32:50.497Z,18.57
2016-10-06T00:33:33.050Z,18.51
2016-10-06T00:34:15.635Z,18.37
2016-10-06T00:34:58.198Z,18.25
2016-10-06T00:35:40.866Z,18.21
2016-10-06T00:36:23.320Z,18.12
2016-10-06T00:37:06.016Z,18.21
2016-10-06T00:37:48.512Z,18.21
2016-10-06T00:38:31.082Z,18.2
2016-10-06T00:39:14.217Z,18.14
2016-10-06T00:39:56.258Z,18.27
2016-10-06T00:40:38.837Z,18.3
2016-10-06T00:41:21.447Z,18.35
2016-10-06T00:42:04.960Z,18.33
2016-10-06T00:42:47.524Z,18.45
2016-10-06T00:43:30.092Z,18.44
2016-10-06T00:44:12.748Z,18.42
2016-10-06T00:44:55.392Z,18.21
2016-10-06T00:45:37.876Z,18.25
2016-10-06T00:46:20.395Z,18.2
2016-10-06T00:47:02.924Z,18.18
2016-10-06T00:47:45.708Z,18.14
2016-10-06T00:48:28.313Z,18.02
2016-10-06T00:50:17.639Z,18.05
2016-10-06T00:51:00.525Z,18.07
2016-10-06T00:51:43.128Z,18.15
2016-10-06T00:52:25.955Z,18.08
2016-10-06T00:53:08.539Z,18.3
2016-10-06T00:53:51.461Z,18.21
2016-10-06T00:54:34.071Z,18.14
2016-10-06T00:55:16.888Z,18.15
2016-10-06T00:55:59.511Z,18.11
2016-10-06T00:56:42.144Z,18.02
2016-10-06T00:57:25.187Z,18.03
2016-10-06T00:58:08.181Z,18
2016-10-06T00:58:50.732Z,17.93
2016-10-06T00:59:33.425Z,18.03
2016-10-06T01:00:16.039Z,18.1
2016-10-06T01:00:58.835Z,18.2
2016-10-06T01:01:41.411Z,18.25
2016-10-06T01:02:24.084Z,18.2
2016-10-06T01:03:06.651Z,18.27
2016-10-06T01:03:49.251Z,18.21
2016-10-06T01:04:31.839Z,18.33
2016-10-06T01:05:14.530Z,18.44
2016-10-06T01:05:57.095Z,18.26
2016-10-06T01:06:39.787Z,18.3
2016-10-06T01:07:23.029Z,18.41
2016-10-06T01:08:05.337Z,18.51
2016-10-06T01:08:47.919Z,18.54
2016-10-06T01:09:30.560Z,18.52
2016-10-06T01:10:13.411Z,18.51
2016-10-06T01:11:38.827Z,18.69
2016-10-06T01:12:21.441Z,18.57
2016-10-06T01:13:04.064Z,18.66
2016-10-06T01:13:47.225Z,18.69
2016-10-06T01:14:29.846Z,18.69
2016-10-06T01:15:12.417Z,18.7
2016-10-06T01:15:55.049Z,18.8
2016-10-06T01:16:37.793Z,18.88
2016-10-06T01:17:20.390Z,18.9
2016-10-06T01:18:02.973Z,18.9
2016-10-06T01:18:45.428Z,18.9
2016-10-06T01:19:28.265Z,18.95
2016-10-06T01:20:11.176Z,18.91
2016-10-06T01:20:53.877Z,18.9
2016-10-06T01:21:36.460Z,18.88
2016-10-06T01:22:19.399Z,18.87
2016-10-06T01:23:02.139Z,18.91
2016-10-06T01:23:44.767Z,18.99
2016-10-06T01:24:27.628Z,18.99
2016-10-06T01:25:10.321Z,18.91
2016-10-06T01:25:52.902Z,18.91
2016-10-06T01:26:35.448Z,18.87
2016-10-06T01:27:18.355Z,18.87
2016-10-06T01:28:00.990Z,18.88
2016-10-06T01:28:43.749Z,18.88
2016-10-06T01:29:26.431Z,18.75
2016-10-06T01:30:09.020Z,18.65
2016-10-06T01:30:52.023Z,18.6
2016-10-06T01:31:34.875Z,18.47
2016-10-06T01:32:17.489Z,18.42
2016-10-06T01:33:00.088Z,18.36
2016-10-06T01:33:42.692Z,18.3
2016-10-06T01:34:25.277Z,18.3
2016-10-06T01:35:07.822Z,18.23
2016-10-06T01:35:50.389Z,18.29
2016-10-06T01:36:33.287Z,18.3
2016-10-06T01:37:16.027Z,18.35
2016-10-06T01:38:04.045Z,18.33
2016-10-06T01:38:46.596Z,18.32
2016-10-06T01:39:29.253Z,18.35
2016-10-06T01:40:11.827Z,18.51
2016-10-06T01:40:54.421Z,18.48
2016-10-06T01:41:36.960Z,18.63
2016-10-06T01:42:19.518Z,18.51
2016-10-06T01:43:02.178Z,18.65
2016-10-06T01:43:44.805Z,18.65
2016-10-06T01:44:27.273Z,18.57
2016-10-06T01:45:09.962Z,18.65
2016-10-06T01:45:52.468Z,18.69
2016-10-06T01:46:35.079Z,18.72
2016-10-06T01:47:17.707Z,18.73
2016-10-06T01:48:00.297Z,18.82
2016-10-06T01:48:42.871Z,18.88
2016-10-06T01:49:25.491Z,18.66
2016-10-06T01:50:08.504Z,18.62
2016-10-06T01:50:51.117Z,18.55
2016-10-06T01:51:33.671Z,18.58
2016-10-06T01:52:16.318Z,18.37
2016-10-06T01:52:58.952Z,18.39
2016-10-06T01:53:41.545Z,18.51
2016-10-06T01:54:24.124Z,18.51
2016-10-06T01:55:06.678Z,18.5
2016-10-06T01:55:49.305Z,18.67
2016-10-06T01:56:31.931Z,18.54
2016-10-06T01:57:14.483Z,18.63
2016-10-06T01:57:57.054Z,18.69
2016-10-06T01:58:39.639Z,18.75
2016-10-06T01:59:22.242Z,18.82
2016-10-06T02:00:04.836Z,18.73
2016-10-06T02:00:47.442Z,18.54
2016-10-06T02:01:29.986Z,18.58
2016-10-06T02:02:12.516Z,18.48
2016-10-06T02:02:55.080Z,18.48
2016-10-06T02:03:37.643Z,18.5
2016-10-06T02:04:20.213Z,18.54
2016-10-06T02:05:02.638Z,18.58
2016-10-06T02:05:46.116Z,18.6
2016-10-06T02:06:28.665Z,18.66
2016-10-06T02:07:11.224Z,18.66
2016-10-06T02:07:53.819Z,18.76
2016-10-06T02:08:36.345Z,18.75
2016-10-06T02:09:18.961Z,18.8
2016-10-06T02:10:01.516Z,18.73
2016-10-06T02:10:43.944Z,18.63
2016-10-06T02:11:26.723Z,18.62
2016-10-06T02:12:09.378Z,18.37
2016-10-06T02:12:52.044Z,18.52
2016-10-06T02:13:34.644Z,18.52
2016-10-06T02:14:17.270Z,18.51
2016-10-06T02:14:59.852Z,18.6
2016-10-06T02:15:42.462Z,18.65
2016-10-06T02:16:25.014Z,18.67
2016-10-06T02:17:07.581Z,18.67
2016-10-06T02:17:50.037Z,18.65
2016-10-06T02:18:32.746Z,18.8
2016-10-06T02:19:15.328Z,18.67
2016-10-06T02:19:57.883Z,18.66
2016-10-06T02:20:40.425Z,18.55
2016-10-06T02:21:23.018Z,18.48
2016-10-06T02:22:05.584Z,18.48
2016-10-06T02:22:48.196Z,18.39
2016-10-06T02:23:30.758Z,18.41
2016-10-06T02:24:13.356Z,18.37
2016-10-06T02:24:55.946Z,18.29
2016-10-06T02:25:38.545Z,18.35
2016-10-06T02:26:21.133Z,18.42
2016-10-06T02:27:03.710Z,18.52
2016-10-06T02:27:46.249Z,18.45
2016-10-06T02:28:28.838Z,18.48
2016-10-06T02:29:11.399Z,18.5
2016-10-06T02:29:54.028Z,18.57
2016-10-06T02:30:36.649Z,18.51
2016-10-06T02:31:19.167Z,18.52
2016-10-06T02:32:01.799Z,18.5
2016-10-06T02:32:44.327Z,18.55
2016-10-06T02:33:26.696Z,18.66
2016-10-06T02:34:16.075Z,18.6
2016-10-06T02:35:15.075Z,18.65
2016-10-06T02:35:57.636Z,18.51
2016-10-06T02:36:40.197Z,18.55
2016-10-06T02:37:22.785Z,18.54
2016-10-06T02:38:05.351Z,18.55
2016-10-06T02:38:47.920Z,18.58
2016-10-06T02:39:30.457Z,18.6
2016-10-06T02:40:13.042Z,18.5
2016-10-06T02:40:55.543Z,18.42
2016-10-06T02:41:38.112Z,18.26
2016-10-06T02:42:20.695Z,18.25
2016-10-06T02:43:03.101Z,18.33
2016-10-06T02:43:45.849Z,18.32
2016-10-06T02:44:28.416Z,18.39
2016-10-06T02:45:15.918Z,18.32
2016-10-06T02:45:58.454Z,18.39
2016-10-06T02:46:41.381Z,18.36
2016-10-06T02:47:23.686Z,18.27
2016-10-06T02:48:06.340Z,18.41
2016-10-06T02:48:48.896Z,18.5
2016-10-06T02:49:31.497Z,18.52
2016-10-06T02:50:14.096Z,18.52
2016-10-06T02:50:56.699Z,18.42
2016-10-06T02:51:39.245Z,18.36
2016-10-06T02:52:21.830Z,18.23
2016-10-06T02:53:04.488Z,18.18
2016-10-06T02:53:47.094Z,18.23
2016-10-06T02:54:29.719Z,18.26
2016-10-06T02:55:12.285Z,18.35
2016-10-06T02:55:54.803Z,18.33
2016-10-06T02:56:37.460Z,18.39
2016-10-06T02:57:20.074Z,18.44
2016-10-06T02:58:02.612Z,18.33
2016-10-06T02:58:45.197Z,18.21
2016-10-06T02:59:27.775Z,18.23
2016-10-06T03:00:10.282Z,18.14
2016-10-06T03:00:52.922Z,18.12
2016-10-06T03:01:35.748Z,18.11
2016-10-06T03:02:18.355Z,18.07
2016-10-06T03:03:00.952Z,17.92
2016-10-06T03:03:43.569Z,17.93
2016-10-06T03:04:26.215Z,18.05
2016-10-06T03:05:08.834Z,18.05
2016-10-06T03:05:51.383Z,17.93
2016-10-06T03:06:33.969Z,18.05
2016-10-06T03:07:16.371Z,17.93
2016-10-06T03:07:59.113Z,17.86
2016-10-06T03:08:41.775Z,17.92
2016-10-06T03:09:24.369Z,17.78
2016-10-06T03:10:06.869Z,17.77
2016-10-06T03:10:49.369Z,17.82
2016-10-06T03:11:31.857Z,17.86
2016-10-06T03:12:14.468Z,17.89
2016-10-06T03:12:57.053Z,17.9
2016-10-06T03:13:39.597Z,17.89
2016-10-06T03:14:22.054Z,17.97
2016-10-06T03:15:04.770Z,17.87
2016-10-06T03:15:47.307Z,17.95
2016-10-06T03:16:29.888Z,17.87
2016-10-06T03:17:12.442Z,17.75
2016-10-06T03:17:54.972Z,17.87
2016-10-06T03:18:37.494Z,17.78
2016-10-06T03:19:20.014Z,17.68
2016-10-06T03:20:02.557Z,17.62
2016-10-06T03:20:45.007Z,17.54
2016-10-06T03:21:27.592Z,17.49
2016-10-06T03:22:10.153Z,17.54
2016-10-06T03:22:52.704Z,17.58
2016-10-06T03:23:35.261Z,17.58
2016-10-06T03:24:17.874Z,17.55
2016-10-06T03:25:00.430Z,17.56
2016-10-06T03:25:42.962Z,17.49
2016-10-06T03:26:25.521Z,17.44
2016-10-06T03:27:07.916Z,17.59
2016-10-06T03:27:50.669Z,17.58
2016-10-06T03:28:33.265Z,17.71
2016-10-06T03:29:15.790Z,17.79
2016-10-06T03:29:58.366Z,17.78
2016-10-06T03:30:40.982Z,17.92
2016-10-06T03:31:23.402Z,17.9
2016-10-06T03:32:06.031Z,17.89
2016-10-06T03:32:48.585Z,17.74
2016-10-06T03:33:31.153Z,17.72
2016-10-06T03:34:13.589Z,17.72
2016-10-06T03:34:56.247Z,17.66
2016-10-06T03:35:38.749Z,17.63
2016-10-06T03:36:21.283Z,17.58
2016-10-06T03:37:03.797Z,17.62
2016-10-06T03:37:46.306Z,17.56
2016-10-06T03:38:28.770Z,17.52
2016-10-06T03:39:11.355Z,17.55
2016-10-06T03:39:53.864Z,17.59
2016-10-06T03:40:36.398Z,17.7
2016-10-06T03:41:18.935Z,17.74
2016-10-06T03:42:01.454Z,17.74
2016-10-06T03:42:43.979Z,17.63
2016-10-06T03:43:26.441Z,17.62
2016-10-06T03:44:09.013Z,17.66
2016-10-06T03:44:51.550Z,17.58
2016-10-06T03:45:34.088Z,17.56
2016-10-06T03:46:16.671Z,17.63
2016-10-06T03:46:59.265Z,17.68
2016-10-06T03:47:41.849Z,17.82
2016-10-06T03:48:24.391Z,17.9
2016-10-06T03:49:06.921Z,17.89
2016-10-06T03:49:49.511Z,17.93
2016-10-06T03:50:32.071Z,18.05
2016-10-06T03:51:14.603Z,18.05
2016-10-06T03:51:57.127Z,18.08
2016-10-06T03:52:39.640Z,18.15
2016-10-06T03:53:22.123Z,18.21
2016-10-06T03:54:04.688Z,18.26
2016-10-06T03:54:47.177Z,18.12
2016-10-06T03:55:29.732Z,18.2
2016-10-06T03:56:12.267Z,18.27
2016-10-06T03:56:54.878Z,18.23
2016-10-06T03:57:37.394Z,18.2
2016-10-06T03:58:19.921Z,18.29
2016-10-06T03:59:02.508Z,18.26
2016-10-06T03:59:45.058Z,18.18
2016-10-06T04:00:27.549Z,18.32
2016-10-06T04:01:10.099Z,18.32
2016-10-06T04:01:52.635Z,18.36
2016-10-06T04:02:35.196Z,18.39
2016-10-06T04:03:17.776Z,18.36
2016-10-06T04:04:00.288Z,18.35
2016-10-06T04:04:42.833Z,18.3
2016-10-06T04:05:25.413Z,18.35
2016-10-06T04:06:07.968Z,18.39
2016-10-06T04:06:50.539Z,18.42
2016-10-06T04:07:33.083Z,18.41
2016-10-06T04:08:15.553Z,18.37
2016-10-06T04:08:58.289Z,18.39
2016-10-06T04:09:40.817Z,18.45
2016-10-06T04:10:23.244Z,18.58
2016-10-06T04:11:06.005Z,18.48
2016-10-06T04:11:48.634Z,18.48
2016-10-06T04:12:31.249Z,18.5
2016-10-06T04:13:13.841Z,18.48
2016-10-06T04:13:56.424Z,18.42
2016-10-06T04:14:38.921Z,18.33
2016-10-06T04:15:21.584Z,18.2
2016-10-06T04:16:04.086Z,18.33
2016-10-06T04:16:46.697Z,18.29
2016-10-06T04:17:29.281Z,18.27
2016-10-06T04:18:11.935Z,18.39
2016-10-06T04:18:54.928Z,18.29
2016-10-06T04:19:37.503Z,18.39
2016-10-06T04:20:20.124Z,18.37
2016-10-06T04:21:02.630Z,18.45
2016-10-06T04:21:45.132Z,18.41
2016-10-06T04:22:27.799Z,18.42
2016-10-06T04:23:11.237Z,18.52
2016-10-06T04:23:53.944Z,18.55
2016-10-06T04:24:36.563Z,18.5
2016-10-06T04:25:19.116Z,18.39
2016-10-06T04:26:01.680Z,18.36
2016-10-06T04:26:44.573Z,18.44
2016-10-06T04:27:27.497Z,18.39
2016-10-06T04:28:10.055Z,18.36
2016-10-06T04:28:52.690Z,18.37
2016-10-06T04:29:35.260Z,18.41
2016-10-06T04:30:17.841Z,18.39
2016-10-06T04:31:00.391Z,18.29
2016-10-06T04:31:42.990Z,18.27
2016-10-06T04:32:25.556Z,18.2
2016-10-06T04:33:08.348Z,18.21
2016-10-06T04:33:50.961Z,18.08
2016-10-06T04:34:33.494Z,18.03
2016-10-06T04:35:16.079Z,18.02
2016-10-06T04:35:58.578Z,17.96
2016-10-06T04:36:41.041Z,18.07
2016-10-06T04:37:23.627Z,17.89
2016-10-06T04:38:06.171Z,17.96
2016-10-06T04:38:48.686Z,17.95
2016-10-06T04:39:31.277Z,18
2016-10-06T04:40:13.846Z,17.81
2016-10-06T04:40:56.226Z,17.9
2016-10-06T04:41:38.923Z,17.89
2016-10-06T04:42:21.468Z,18.02
2016-10-06T04:43:04.031Z,18.11
2016-10-06T04:43:46.521Z,18.1
2016-10-06T04:44:29.172Z,18.14
2016-10-06T04:45:11.686Z,18.17
2016-10-06T04:45:53.996Z,18.17
2016-10-06T04:46:36.820Z,18.25
2016-10-06T04:47:19.374Z,18.29
2016-10-06T04:48:01.922Z,18.21
2016-10-06T04:48:44.456Z,18.29
2016-10-06T04:49:27.020Z,18.21
2016-10-06T04:50:09.587Z,18.26
2016-10-06T04:50:52.111Z,18.23
2016-10-06T04:51:34.724Z,18.25
2016-10-06T04:52:17.359Z,18.23
2016-10-06T04:52:59.916Z,18.29
2016-10-06T04:53:42.284Z,18.25
2016-10-06T04:54:25.075Z,18.36
2016-10-06T04:55:07.595Z,18.39
2016-10-06T04:55:50.131Z,18.39
2016-10-06T04:56:32.686Z,18.42
2016-10-06T04:57:15.212Z,18.54
2016-10-06T04:57:57.726Z,18.54
2016-10-06T04:58:40.285Z,18.52
2016-10-06T04:59:22.772Z,18.45
2016-10-06T05:00:05.312Z,18.5
2016-10-06T05:00:47.888Z,18.52
2016-10-06T05:01:30.408Z,18.62
2016-10-06T05:02:13.025Z,18.51
2016-10-06T05:02:55.502Z,18.45
2016-10-06T05:03:38.014Z,18.27
2016-10-06T05:04:20.567Z,18.25
2016-10-06T05:05:03.124Z,18.21
2016-10-06T05:05:45.669Z,18.25
2016-10-06T05:06:28.212Z,18.14
2016-10-06T05:07:10.741Z,18.08
2016-10-06T05:07:53.319Z,18.21
2016-10-06T05:08:35.916Z,18.21
2016-10-06T05:09:18.533Z,18.29
2016-10-06T05:10:01.023Z,18.26
2016-10-06T05:10:43.630Z,18.33
2016-10-06T05:11:26.118Z,18.29
2016-10-06T05:12:08.841Z,18.41
2016-10-06T05:12:54.075Z,18.44
2016-10-06T05:13:36.678Z,18.39
2016-10-06T05:14:19.237Z,18.36
2016-10-06T05:15:01.783Z,18.44
2016-10-06T05:15:44.395Z,18.48
2016-10-06T05:16:26.927Z,18.45
2016-10-06T05:17:09.541Z,18.39
2016-10-06T05:17:52.186Z,18.41
2016-10-06T05:18:35.089Z,18.41
2016-10-06T05:19:17.616Z,18.52
2016-10-06T05:20:00.218Z,18.65
2016-10-06T05:20:42.802Z,18.5
2016-10-06T05:21:25.370Z,18.63
2016-10-06T05:22:07.874Z,18.45
2016-10-06T05:22:50.422Z,18.33
2016-10-06T05:23:32.962Z,18.21
2016-10-06T05:24:15.571Z,18.14
2016-10-06T05:24:58.144Z,17.99
2016-10-06T05:25:40.903Z,17.95
2016-10-06T05:26:23.490Z,17.92
2016-10-06T05:27:05.851Z,17.82
2016-10-06T05:27:48.595Z,17.93
2016-10-06T05:28:31.134Z,17.9
2016-10-06T05:29:13.696Z,17.9
2016-10-06T05:29:56.313Z,17.84
2016-10-06T05:30:38.846Z,18.02
2016-10-06T05:31:21.427Z,17.92
2016-10-06T05:32:04.051Z,18
2016-10-06T05:32:46.643Z,17.93
2016-10-06T05:33:29.213Z,17.95
2016-10-06T05:34:11.641Z,18.08
2016-10-06T05:34:54.344Z,18.17
2016-10-06T05:35:36.907Z,18.17
2016-10-06T05:36:19.500Z,18.2
2016-10-06T05:37:02.027Z,18.2
2016-10-06T05:37:44.664Z,18.18
2016-10-06T05:38:27.276Z,18.25
2016-10-06T05:39:09.728Z,18.26
2016-10-06T05:39:52.436Z,18.26
2016-10-06T05:40:35.011Z,18.2
2016-10-06T05:41:17.566Z,18.21
2016-10-06T05:42:00.199Z,18.25
2016-10-06T05:42:42.711Z,18.18
2016-10-06T05:43:25.403Z,18.23
2016-10-06T05:44:08.027Z,18.26
2016-10-06T05:44:50.675Z,18.21
2016-10-06T05:45:33.239Z,18.21
2016-10-06T05:46:15.786Z,18.17
2016-10-06T05:46:58.347Z,17.96
2016-10-06T05:47:40.956Z,17.9
2016-10-06T05:48:23.511Z,17.87
2016-10-06T05:49:06.100Z,17.74
2016-10-06T05:49:48.698Z,17.78
2016-10-06T05:50:31.281Z,17.75
2016-10-06T05:51:13.928Z,17.72
2016-10-06T05:51:56.534Z,17.9
2016-10-06T05:52:39.116Z,17.86
2016-10-06T05:53:21.491Z,17.82
2016-10-06T05:54:04.169Z,17.87
2016-10-06T05:54:46.779Z,17.87
2016-10-06T05:55:29.380Z,17.71
2016-10-06T05:56:11.995Z,17.78
2016-10-06T05:56:54.565Z,17.84
2016-10-06T05:57:37.164Z,17.74
2016-10-06T05:58:19.736Z,17.72
2016-10-06T05:59:02.382Z,17.78
2016-10-06T05:59:44.952Z,17.93
2016-10-06T06:00:27.535Z,17.79
2016-10-06T06:01:10.952Z,17.86
2016-10-06T06:01:52.759Z,17.72
2016-10-06T06:02:35.365Z,17.75
2016-10-06T06:03:18.023Z,17.87
2016-10-06T06:04:00.688Z,17.87
2016-10-06T06:04:43.226Z,17.81
2016-10-06T06:05:25.808Z,17.89
2016-10-06T06:06:09.240Z,17.9
2016-10-06T06:06:51.786Z,17.93
2016-10-06T06:07:34.390Z,17.87
2016-10-06T06:08:16.926Z,17.75
2016-10-06T06:08:59.380Z,17.72
2016-10-06T06:09:42.055Z,17.89
2016-10-06T06:10:24.588Z,17.79
2016-10-06T06:11:07.148Z,17.81
2016-10-06T06:11:49.733Z,17.82
2016-10-06T06:12:32.232Z,17.75
2016-10-06T06:13:14.897Z,17.74
2016-10-06T06:13:57.410Z,17.84
2016-10-06T06:14:39.968Z,17.84
2016-10-06T06:15:22.568Z,17.89
2016-10-06T06:16:05.123Z,17.87
2016-10-06T06:16:47.731Z,17.89
2016-10-06T06:17:30.314Z,17.93
2016-10-06T06:18:12.919Z,17.92
2016-10-06T06:18:55.453Z,17.89
2016-10-06T06:19:38.132Z,17.82
2016-10-06T06:20:20.689Z,17.92
2016-10-06T06:21:03.257Z,17.82
2016-10-06T06:21:45.838Z,17.84
2016-10-06T06:22:28.461Z,17.97
2016-10-06T06:23:10.992Z,17.93
2016-10-06T06:23:53.556Z,17.84
2016-10-06T06:24:36.131Z,17.77
2016-10-06T06:25:19.459Z,17.72
2016-10-06T06:26:01.237Z,17.79
2016-10-06T06:26:43.856Z,17.89
2016-10-06T06:27:26.490Z,17.92
2016-10-06T06:28:09.034Z,17.93
2016-10-06T06:28:51.655Z,18
2016-10-06T06:29:34.265Z,17.99
2016-10-06T06:30:16.828Z,17.97
2016-10-06T06:30:59.301Z,17.89
2016-10-06T06:31:41.822Z,17.96
2016-10-06T06:32:24.525Z,17.9
2016-10-06T06:33:07.133Z,17.96
2016-10-06T06:33:49.747Z,17.92
2016-10-06T06:34:32.286Z,17.93
2016-10-06T06:35:14.859Z,17.89
2016-10-06T06:35:57.472Z,17.89
2016-10-06T06:36:40.067Z,18.05
2016-10-06T06:37:22.675Z,18.08
2016-10-06T06:38:05.202Z,18.08
2016-10-06T06:38:47.597Z,18.07
2016-10-06T06:39:30.299Z,18.1
2016-10-06T06:40:12.919Z,18.1
2016-10-06T06:40:55.500Z,17.92
2016-10-06T06:41:38.015Z,17.92
2016-10-06T06:42:20.560Z,18.12
2016-10-06T06:43:03.148Z,18.02
2016-10-06T06:43:45.778Z,18.05
2016-10-06T06:44:28.307Z,17.9
2016-10-06T06:45:10.892Z,17.89
2016-10-06T06:45:53.380Z,17.89
2016-10-06T06:46:36.120Z,17.84
2016-10-06T06:47:18.700Z,17.92
2016-10-06T06:48:01.232Z,18.05
2016-10-06T06:48:43.817Z,18.08
2016-10-06T06:49:26.375Z,18
2016-10-06T06:50:08.980Z,18.03
2016-10-06T06:50:51.601Z,18.1
2016-10-06T06:51:34.170Z,18.14
2016-10-06T06:52:16.715Z,18.2
2016-10-06T06:52:59.276Z,18.15
2016-10-06T06:53:41.876Z,18.17
2016-10-06T06:54:24.413Z,18.14
2016-10-06T06:55:06.969Z,18.2
2016-10-06T06:55:49.528Z,18.21
2016-10-06T06:56:32.134Z,18.1
2016-10-06T06:57:14.703Z,18.26
2016-10-06T06:57:57.331Z,18.2
2016-10-06T06:58:39.957Z,18.2
2016-10-06T06:59:22.529Z,18.23
2016-10-06T07:00:05.107Z,18.17
2016-10-06T07:00:47.679Z,18.26
2016-10-06T07:01:30.237Z,18.26
2016-10-06T07:02:12.797Z,18.23
2016-10-06T07:02:55.400Z,18.14
2016-10-06T07:03:37.945Z,18.26
2016-10-06T07:04:20.519Z,18.32
2016-10-06T07:05:03.158Z,18.23
2016-10-06T07:05:45.640Z,18.29
2016-10-06T07:06:28.258Z,18.33
2016-10-06T07:07:10.849Z,18.3
2016-10-06T07:07:53.488Z,18.25
2016-10-06T07:08:36.112Z,18.35
2016-10-06T07:09:18.762Z,18.26
2016-10-06T07:10:01.308Z,18.2
2016-10-06T07:10:43.835Z,18.14
2016-10-06T07:11:26.433Z,18.18
2016-10-06T07:12:09.094Z,18.18
2016-10-06T07:12:51.627Z,18.07
2016-10-06T07:13:34.612Z,17.99
2016-10-06T07:14:17.209Z,17.93
2016-10-06T07:14:59.729Z,18.03
2016-10-06T07:15:42.119Z,18.05
2016-10-06T07:16:24.855Z,17.99
2016-10-06T07:17:07.404Z,18.02
2016-10-06T07:17:49.914Z,18.2
2016-10-06T07:18:32.593Z,18.2
2016-10-06T07:19:15.230Z,18.18
2016-10-06T07:19:57.796Z,18.26
2016-10-06T07:20:40.203Z,18.29
2016-10-06T07:21:22.972Z,18.21
2016-10-06T07:22:05.562Z,18.18
2016-10-06T07:22:48.137Z,18.18
2016-10-06T07:23:30.740Z,18.21
2016-10-06T07:24:13.343Z,18.17
2016-10-06T07:24:55.894Z,18.15
2016-10-06T07:25:38.502Z,18.2
2016-10-06T07:26:21.078Z,18.2
2016-10-06T07:27:03.603Z,18.23
2016-10-06T07:27:46.284Z,18.23
2016-10-06T07:28:28.888Z,18.14
2016-10-06T07:29:11.385Z,18.18
2016-10-06T07:29:53.997Z,18.23
2016-10-06T07:30:37.472Z,18.18
2016-10-06T07:31:20.099Z,18.23
2016-10-06T07:32:02.673Z,18.21
2016-10-06T07:32:45.325Z,18.23
2016-10-06T07:33:27.947Z,18.29
2016-10-06T07:34:10.739Z,18.18
2016-10-06T07:34:53.320Z,18.05
2016-10-06T07:35:36.056Z,18.2
2016-10-06T07:36:18.732Z,18.17
2016-10-06T07:37:01.386Z,18.21
2016-10-06T07:37:43.962Z,18.2
2016-10-06T07:38:26.559Z,18.03
2016-10-06T07:39:08.998Z,18.2
2016-10-06T07:39:51.805Z,18.08
2016-10-06T07:40:34.458Z,18.11
2016-10-06T07:41:17.062Z,18.07
2016-10-06T07:41:59.630Z,18.05
2016-10-06T07:42:42.173Z,18.02
2016-10-06T07:43:24.692Z,18.03
2016-10-06T07:44:07.331Z,18.08
2016-10-06T07:44:49.920Z,18.17
2016-10-06T07:45:32.463Z,18.23
2016-10-06T07:46:15.043Z,18.23
2016-10-06T07:46:57.598Z,18.21
2016-10-06T07:47:40.198Z,18.25
2016-10-06T07:48:22.797Z,18.35
2016-10-06T07:49:05.276Z,18.35
2016-10-06T07:49:47.942Z,18.36
2016-10-06T07:50:30.583Z,18.42
2016-10-06T07:51:13.978Z,18.42
2016-10-06T07:51:55.785Z,18.42
2016-10-06T07:52:38.369Z,18.45
2016-10-06T07:53:20.956Z,18.44
2016-10-06T07:54:03.517Z,18.37
2016-10-06T07:54:46.108Z,18.35
2016-10-06T07:55:28.703Z,18.42
2016-10-06T07:56:11.255Z,18.42
2016-10-06T07:56:53.823Z,18.42
2016-10-06T07:57:36.383Z,18.41
2016-10-06T07:58:19.000Z,18.41
2016-10-06T07:59:01.555Z,18.39
2016-10-06T07:59:44.149Z,18.44
2016-10-06T08:00:26.726Z,18.35
2016-10-06T08:01:09.263Z,18.45
2016-10-06T08:01:51.803Z,18.42
2016-10-06T08:02:34.396Z,18.42
2016-10-06T08:03:16.962Z,18.39
2016-10-06T08:03:59.539Z,18.41
2016-10-06T08:04:42.157Z,18.42
2016-10-06T08:05:24.728Z,18.52
2016-10-06T08:06:07.327Z,18.39
2016-10-06T08:06:49.729Z,18.5
2016-10-06T08:07:32.539Z,18.41
2016-10-06T08:08:15.142Z,18.39
2016-10-06T08:08:57.724Z,18.35
2016-10-06T08:09:40.322Z,18.47
2016-10-06T08:10:28.472Z,18.44
2016-10-06T08:11:11.054Z,18.45
2016-10-06T08:11:53.550Z,18.52
2016-10-06T08:12:36.243Z,18.5
2016-10-06T08:13:18.876Z,18.67
2016-10-06T08:14:01.439Z,18.51
2016-10-06T08:14:44.059Z,18.52
2016-10-06T08:15:26.623Z,18.62
2016-10-06T08:16:09.223Z,18.67
2016-10-06T08:16:51.808Z,18.67
2016-10-06T08:17:34.551Z,18.63
2016-10-06T08:18:17.134Z,18.65
2016-10-06T08:18:59.813Z,18.55
2016-10-06T08:19:42.356Z,18.44
2016-10-06T08:20:24.971Z,18.52
2016-10-06T08:21:07.545Z,18.52
2016-10-06T08:21:50.203Z,18.47
2016-10-06T08:22:32.764Z,18.52
2016-10-06T08:23:15.243Z,18.65
2016-10-06T08:23:57.971Z,18.52
2016-10-06T08:24:40.545Z,18.48
2016-10-06T08:25:23.121Z,18.5
2016-10-06T08:26:05.684Z,18.52
2016-10-06T08:26:48.221Z,18.5
2016-10-06T08:27:30.771Z,18.5
2016-10-06T08:28:13.351Z,18.55
2016-10-06T08:28:55.907Z,18.48
2016-10-06T08:29:38.461Z,18.39
2016-10-06T08:30:21.003Z,18.48
2016-10-06T08:31:03.578Z,18.41
2016-10-06T08:31:46.181Z,18.36
2016-10-06T08:32:28.607Z,18.36
2016-10-06T08:33:11.276Z,18.44
2016-10-06T08:33:53.884Z,18.42
2016-10-06T08:34:36.480Z,18.33
2016-10-06T08:35:19.081Z,18.41
2016-10-06T08:36:01.683Z,18.36
2016-10-06T08:36:44.309Z,18.42
2016-10-06T08:37:26.870Z,18.41
2016-10-06T08:38:09.396Z,18.39
2016-10-06T08:38:51.980Z,18.36
2016-10-06T08:39:34.527Z,18.44
2016-10-06T08:40:17.092Z,18.42
2016-10-06T08:40:59.671Z,18.37
2016-10-06T08:41:42.296Z,18.45
2016-10-06T08:42:24.881Z,18.47
2016-10-06T08:43:07.525Z,18.48
2016-10-06T08:43:50.091Z,18.6
2016-10-06T08:44:32.651Z,18.7
2016-10-06T08:45:15.258Z,18.6
2016-10-06T08:45:57.809Z,18.6
2016-10-06T08:46:40.396Z,18.63
2016-10-06T08:47:22.968Z,18.5
2016-10-06T08:48:05.535Z,18.51
2016-10-06T08:48:48.137Z,18.55
2016-10-06T08:49:30.689Z,18.55
2016-10-06T08:50:13.275Z,18.47
2016-10-06T08:50:55.826Z,18.51
2016-10-06T08:51:38.373Z,18.51
2016-10-06T08:52:20.979Z,18.51
2016-10-06T08:53:03.535Z,18.51
2016-10-06T08:53:46.051Z,18.54
2016-10-06T08:54:28.656Z,18.55
2016-10-06T08:55:11.206Z,18.54
2016-10-06T08:55:53.834Z,18.55
2016-10-06T08:56:36.439Z,18.66
2016-10-06T08:57:19.034Z,18.63
2016-10-06T08:58:01.720Z,18.63
2016-10-06T08:58:44.320Z,18.57
2016-10-06T08:59:26.897Z,18.63
2016-10-06T09:00:09.443Z,18.66
2016-10-06T09:00:51.995Z,18.58
2016-10-06T09:01:34.551Z,18.62
2016-10-06T09:02:17.100Z,18.57
2016-10-06T09:02:59.686Z,18.47
2016-10-06T09:03:42.260Z,18.52
2016-10-06T09:04:24.721Z,18.55
2016-10-06T09:05:07.221Z,18.6
2016-10-06T09:05:49.948Z,18.5
2016-10-06T09:06:32.429Z,18.54
2016-10-06T09:07:15.148Z,18.51
2016-10-06T09:07:57.662Z,18.45
2016-10-06T09:08:40.236Z,18.57
2016-10-06T09:09:22.860Z,18.5
2016-10-06T09:10:05.469Z,18.54
2016-10-06T09:10:48.024Z,18.65
2016-10-06T09:11:30.590Z,18.55
2016-10-06T09:12:13.268Z,18.45
2016-10-06T09:12:55.802Z,18.58
2016-10-06T09:13:38.407Z,18.45
2016-10-06T09:14:21.008Z,18.45